createdAt,value
2019-02-23T00:02:25.359Z,14.90
2019-02-23T00:04:51.326Z,15.08
2019-02-23T00:07:17.014Z,17.57
2019-02-23T00:09:42.957Z,13.43
2019-02-23T00:12:08.625Z,16.23
2019-02-23T00:14:37.945Z,17.17
2019-02-23T00:17:03.610Z,25.02
2019-02-23T00:19:29.271Z,16.80
2019-02-23T00:21:55.195Z,16.50
2019-02-23T00:24:20.846Z,18.07
2019-02-23T00:26:49.306Z,15.70
2019-02-23T00:29:15.197Z,12.88
2019-02-23T00:31:43.938Z,20.80
2019-02-23T00:34:09.619Z,21.10
2019-02-23T00:36:36.707Z,15.27
2019-02-23T00:39:03.767Z,18.75
2019-02-23T00:41:32.496Z,13.80
2019-02-23T00:43:58.458Z,15.40
2019-02-23T00:46:25.900Z,17.63
2019-02-23T00:48:51.577Z,12.20
2019-02-23T00:51:22.027Z,15.43
2019-02-23T00:53:47.977Z,17.65
2019-02-23T00:56:13.678Z,12.97
2019-02-23T00:58:39.351Z,13.30
2019-02-23T01:01:05.074Z,20.87
2019-02-23T01:03:33.758Z,15.93
2019-02-23T01:05:59.454Z,15.93
2019-02-23T01:08:28.159Z,18.93
2019-02-23T01:10:58.211Z,14.75
2019-02-23T01:13:21.834Z,16.73
2019-02-23T01:15:47.880Z,17.10
2019-02-23T01:18:18.610Z,40.07
2019-02-23T01:20:44.306Z,13.93
2019-02-23T01:23:13.120Z,16.13
2019-02-23T01:25:38.800Z,13.45
2019-02-23T01:28:05.664Z,15.20
2019-02-23T01:30:31.746Z,14.53
2019-02-23T01:32:57.920Z,17.87
2019-02-23T01:35:23.674Z,19.57
2019-02-23T01:37:49.337Z,13.77
2019-02-23T01:40:17.984Z,17.77
2019-02-23T01:42:43.972Z,11.97
2019-02-23T01:45:12.224Z,15.40
2019-02-23T01:47:37.987Z,11.25
2019-02-23T01:50:07.616Z,17.47
2019-02-23T01:52:33.278Z,12.47
2019-02-23T01:55:03.694Z,14.07
2019-02-23T01:57:29.386Z,13.35
2019-02-23T01:59:58.246Z,18.57
2019-02-23T02:02:24.036Z,21.10
2019-02-23T02:04:52.848Z,19.60
2019-02-23T02:07:21.652Z,19.12
2019-02-23T02:09:47.352Z,15.25
2019-02-23T02:12:14.226Z,12.43
2019-02-23T02:14:40.033Z,17.50
2019-02-23T02:17:05.736Z,15.83
2019-02-23T02:19:31.717Z,19.67
2019-02-23T02:22:00.618Z,17.20
2019-02-23T02:24:26.298Z,18.25
2019-02-23T02:26:54.723Z,18.43
2019-02-23T02:29:20.533Z,16.57
2019-02-23T02:31:48.974Z,14.10
2019-02-23T02:34:14.747Z,15.53
2019-02-23T02:36:43.853Z,20.53
2019-02-23T02:39:10.562Z,16.10
2019-02-23T02:41:39.045Z,22.17
2019-02-23T02:44:04.704Z,15.60
2019-02-23T02:46:30.674Z,16.00
2019-02-23T02:48:56.706Z,19.32
2019-02-23T02:51:22.452Z,19.50
2019-02-23T02:53:50.881Z,19.00
2019-02-23T02:56:16.862Z,20.82
2019-02-23T02:58:45.747Z,14.75
2019-02-23T03:01:11.396Z,17.17
2019-02-23T03:03:40.214Z,16.17
2019-02-23T03:06:05.879Z,18.73
2019-02-23T03:08:34.572Z,21.23
2019-02-23T03:11:00.505Z,27.85
2019-02-23T03:13:27.806Z,20.97
2019-02-23T03:15:53.477Z,18.57
2019-02-23T03:18:26.487Z,21.47
2019-02-23T03:20:52.261Z,18.77
2019-02-23T03:23:18.187Z,20.60
2019-02-23T03:25:43.903Z,21.30
2019-02-23T03:28:09.602Z,24.37
2019-02-23T03:30:35.335Z,15.60
2019-02-23T03:33:01.098Z,19.30
2019-02-23T03:35:29.881Z,20.93
2019-02-23T03:37:55.578Z,22.10
2019-02-23T03:40:23.605Z,21.50
2019-02-23T03:42:49.288Z,23.20
2019-02-23T03:45:17.799Z,20.83
2019-02-23T03:47:43.501Z,20.57
2019-02-23T03:50:09.197Z,21.10
2019-02-23T03:52:38.136Z,27.07
2019-02-23T03:55:07.340Z,18.87
2019-02-23T03:57:33.314Z,24.20
2019-02-23T03:59:59.001Z,23.90
2019-02-23T04:02:24.683Z,20.50
2019-02-23T04:04:50.692Z,20.70
2019-02-23T04:07:20.724Z,20.37
2019-02-23T04:09:44.211Z,23.85
2019-02-23T04:12:09.867Z,24.10
2019-02-23T04:14:36.827Z,21.70
2019-02-23T04:17:02.756Z,18.87
2019-02-23T04:19:31.556Z,25.57
2019-02-23T04:21:57.201Z,19.90
2019-02-23T04:24:30.074Z,23.80
2019-02-23T04:26:59.069Z,21.62
2019-02-23T04:29:24.712Z,19.37
2019-02-23T04:31:55.094Z,24.50
2019-02-23T04:34:20.753Z,21.42
2019-02-23T04:36:46.450Z,27.70
2019-02-23T04:39:12.133Z,21.87
2019-02-23T04:41:37.812Z,22.30
2019-02-23T04:44:04.758Z,21.40
2019-02-23T04:46:30.734Z,23.87
2019-02-23T04:49:00.136Z,29.30
2019-02-23T04:51:25.854Z,24.23
2019-02-23T04:53:56.319Z,21.67
2019-02-23T04:56:22.283Z,28.12
2019-02-23T04:58:50.688Z,24.90
2019-02-23T05:01:16.639Z,26.68
2019-02-23T05:03:45.406Z,25.20
2019-02-23T05:06:11.790Z,32.10
2019-02-23T05:08:40.864Z,24.80
2019-02-23T05:11:06.547Z,26.57
2019-02-23T05:13:32.197Z,29.73
2019-02-23T05:15:57.916Z,35.83
2019-02-23T05:18:26.708Z,24.00
2019-02-23T05:20:52.371Z,25.60
2019-02-23T05:23:18.328Z,26.00
2019-02-23T05:25:47.280Z,28.83
2019-02-23T05:28:13.266Z,29.20
2019-02-23T05:30:41.719Z,22.73
2019-02-23T05:33:07.425Z,22.75
2019-02-23T05:35:34.460Z,21.73
2019-02-23T05:38:00.520Z,25.25
2019-02-23T05:40:28.894Z,27.05
2019-02-23T05:43:00.960Z,26.48
2019-02-23T05:45:24.256Z,20.85
2019-02-23T05:47:49.910Z,26.45
2019-02-23T05:50:15.606Z,26.80
2019-02-23T05:52:41.258Z,20.80
2019-02-23T05:55:06.909Z,21.90
2019-02-23T05:57:35.370Z,17.20
2019-02-23T06:00:01.087Z,24.92
2019-02-23T06:02:34.203Z,26.23
2019-02-23T06:05:00.316Z,23.40
2019-02-23T06:07:26.096Z,25.10
2019-02-23T06:09:51.792Z,26.80
2019-02-23T06:12:20.512Z,31.70
2019-02-23T06:14:46.184Z,20.70
2019-02-23T06:17:14.714Z,22.07
2019-02-23T06:19:40.376Z,24.85
2019-02-23T06:22:09.641Z,24.57
2019-02-23T06:24:35.333Z,26.85
2019-02-23T06:27:01.021Z,26.90
2019-02-23T06:29:26.972Z,24.10
2019-02-23T06:31:52.637Z,26.47
2019-02-23T06:34:21.152Z,24.23
2019-02-23T06:36:47.096Z,26.42
2019-02-23T06:39:15.934Z,23.00
2019-02-23T06:41:41.586Z,26.05
2019-02-23T06:44:10.128Z,25.43
2019-02-23T06:46:35.795Z,29.48
2019-02-23T06:49:04.972Z,27.17
2019-02-23T06:51:30.982Z,25.97
2019-02-23T06:53:59.734Z,29.40
2019-02-23T06:56:25.410Z,32.75
2019-02-23T06:58:54.856Z,24.23
2019-02-23T07:01:20.551Z,20.50
2019-02-23T07:03:46.482Z,24.53
2019-02-23T07:06:12.450Z,26.93
2019-02-23T07:08:38.373Z,20.87
2019-02-23T07:11:08.284Z,20.70
2019-02-23T07:13:33.938Z,17.50
2019-02-23T07:16:00.694Z,22.37
2019-02-23T07:18:26.350Z,20.10
2019-02-23T07:20:55.005Z,21.37
2019-02-23T07:23:20.677Z,21.10
2019-02-23T07:25:46.462Z,20.43
2019-02-23T07:28:15.131Z,19.80
2019-02-23T07:30:40.788Z,23.47
2019-02-23T07:33:09.268Z,21.30
2019-02-23T07:35:35.024Z,19.37
2019-02-23T07:38:03.600Z,21.17
2019-02-23T07:40:29.318Z,22.73
2019-02-23T07:42:57.789Z,24.23
2019-02-23T07:45:23.732Z,19.65
2019-02-23T07:47:52.423Z,26.03
2019-02-23T07:50:18.194Z,22.13
2019-02-23T07:52:46.136Z,20.90
2019-02-23T07:55:12.094Z,24.05
2019-02-23T07:57:41.790Z,23.43
2019-02-23T08:00:11.104Z,28.70
2019-02-23T08:02:37.081Z,21.00
2019-02-23T08:05:04.205Z,20.57
2019-02-23T08:07:32.972Z,20.88
2019-02-23T08:09:58.935Z,25.30
2019-02-23T08:12:27.356Z,24.80
2019-02-23T08:14:53.045Z,22.67
2019-02-23T08:17:18.691Z,22.23
2019-02-23T08:19:44.404Z,25.33
2019-02-23T08:22:10.071Z,19.83
2019-02-23T08:24:38.734Z,24.30
2019-02-23T08:27:04.442Z,20.30
2019-02-23T08:29:33.141Z,29.80
2019-02-23T08:31:58.845Z,32.33
2019-02-23T08:34:27.773Z,20.13
2019-02-23T08:36:53.460Z,22.00
2019-02-23T08:39:22.006Z,19.23
2019-02-23T08:41:47.702Z,29.95
2019-02-23T08:44:16.232Z,22.50
2019-02-23T08:46:41.903Z,20.02
2019-02-23T08:49:10.877Z,19.33
2019-02-23T08:51:36.854Z,19.05
2019-02-23T08:54:02.909Z,19.93
2019-02-23T08:56:30.866Z,21.75
2019-02-23T08:58:56.446Z,20.68
2019-02-23T09:01:22.427Z,22.23
2019-02-23T09:03:49.789Z,20.17
2019-02-23T09:06:16.769Z,20.43
2019-02-23T09:08:42.489Z,22.10
2019-02-23T09:11:12.158Z,18.50
2019-02-23T09:13:38.095Z,22.82
2019-02-23T09:16:06.539Z,20.07
2019-02-23T09:18:32.231Z,22.70
2019-02-23T09:21:02.986Z,22.70
2019-02-23T09:23:28.705Z,25.47
2019-02-23T09:25:57.838Z,24.63
2019-02-23T09:28:23.156Z,19.43
2019-02-23T09:30:48.928Z,21.57
2019-02-23T09:33:14.858Z,18.00
2019-02-23T09:35:40.822Z,24.83
2019-02-23T09:38:09.502Z,18.67
2019-02-23T09:40:35.435Z,20.37
2019-02-23T09:43:02.575Z,20.03
2019-02-23T09:45:28.221Z,19.53
2019-02-23T09:47:57.479Z,25.03
2019-02-23T09:50:23.159Z,25.33
2019-02-23T09:52:51.406Z,23.33
2019-02-23T09:55:17.085Z,21.20
2019-02-23T09:57:42.986Z,17.73
2019-02-23T10:00:11.969Z,17.20
2019-02-23T10:02:41.203Z,23.27
2019-02-23T10:05:07.453Z,17.52
2019-02-23T10:07:33.144Z,15.83
2019-02-23T10:09:58.829Z,22.40
2019-02-23T10:12:24.849Z,16.40
2019-02-23T10:14:53.368Z,15.40
2019-02-23T10:17:19.072Z,20.82
2019-02-23T10:19:47.795Z,16.63
2019-02-23T10:22:13.510Z,15.58
2019-02-23T10:24:43.080Z,21.23
2019-02-23T10:27:09.101Z,17.57
2019-02-23T10:29:37.245Z,14.03
2019-02-23T10:32:03.213Z,13.60
2019-02-23T10:34:33.536Z,14.73
2019-02-23T10:36:59.489Z,13.33
2019-02-23T10:39:26.611Z,13.60
2019-02-23T10:41:52.294Z,17.63
2019-02-23T10:44:18.220Z,14.50
2019-02-23T10:46:43.995Z,16.37
2019-02-23T10:49:09.913Z,20.00
2019-02-23T10:51:38.764Z,13.20
2019-02-23T10:54:04.688Z,12.70
2019-02-23T10:56:33.033Z,13.50
2019-02-23T10:58:58.697Z,13.10
2019-02-23T11:01:28.193Z,11.00
2019-02-23T11:03:53.846Z,13.00
2019-02-23T11:06:24.611Z,14.70
2019-02-23T11:08:50.306Z,12.70
2019-02-23T11:11:17.353Z,9.80
2019-02-23T11:13:43.059Z,11.23
2019-02-23T11:16:11.879Z,12.50
2019-02-23T11:18:37.670Z,12.90
2019-02-23T11:21:03.572Z,11.07
2019-02-23T11:23:29.474Z,11.10
2019-02-23T11:25:55.128Z,11.57
2019-02-23T11:28:24.070Z,10.10
2019-02-23T11:30:49.745Z,10.82
2019-02-23T11:33:18.540Z,10.53
2019-02-23T11:35:44.194Z,12.27
2019-02-23T11:38:13.171Z,10.30
2019-02-23T11:40:38.905Z,10.50
2019-02-23T11:43:07.182Z,8.97
2019-02-23T11:45:32.858Z,10.33
2019-02-23T11:47:58.528Z,9.87
2019-02-23T11:50:26.980Z,11.43
2019-02-23T11:52:52.666Z,11.00
2019-02-23T11:55:19.538Z,9.17
2019-02-23T11:57:45.473Z,8.73
2019-02-23T12:00:16.142Z,9.07
2019-02-23T12:02:51.733Z,14.53
2019-02-23T12:05:09.727Z,11.40
2019-02-23T12:07:35.394Z,13.33
2019-02-23T12:10:04.228Z,14.60
2019-02-23T12:12:29.882Z,7.90
2019-02-23T12:14:58.964Z,10.70
2019-02-23T12:17:24.884Z,10.20
2019-02-23T12:19:55.689Z,9.13
2019-02-23T12:22:21.371Z,7.80
2019-02-23T12:24:49.908Z,10.17
2019-02-23T12:27:15.575Z,6.90
2019-02-23T12:29:42.772Z,7.10
2019-02-23T12:32:08.760Z,8.53
2019-02-23T12:34:34.712Z,7.60
2019-02-23T12:37:00.411Z,9.93
2019-02-23T12:39:26.332Z,13.47
2019-02-23T12:41:55.766Z,6.73
2019-02-23T12:44:21.429Z,8.90
2019-02-23T12:46:50.183Z,9.57
2019-02-23T12:49:16.144Z,10.70
2019-02-23T12:51:44.892Z,7.50
2019-02-23T12:54:16.703Z,8.17
2019-02-23T12:56:38.414Z,7.20
2019-02-23T12:59:04.423Z,9.03
2019-02-23T13:01:35.292Z,7.50
2019-02-23T13:04:01.038Z,6.37
2019-02-23T13:06:28.043Z,5.97
2019-02-23T13:09:13.074Z,11.90
2019-02-23T13:11:39.330Z,5.80
2019-02-23T13:14:32.594Z,9.17
2019-02-23T13:17:02.961Z,18.73
2019-02-23T13:19:33.503Z,7.10
2019-02-23T13:22:01.378Z,6.90
2019-02-23T13:24:29.038Z,7.57
2019-02-23T13:26:56.882Z,5.97
2019-02-23T13:29:27.666Z,7.23
2019-02-23T13:32:12.040Z,4.77
2019-02-23T13:34:42.735Z,7.37
2019-02-23T13:37:22.747Z,7.53
2019-02-23T13:39:59.399Z,6.27
2019-02-23T13:42:30.022Z,7.97
2019-02-23T13:45:13.118Z,4.60
2019-02-23T13:48:00.493Z,9.10
2019-02-23T13:50:46.292Z,6.50
2019-02-23T13:53:17.208Z,4.77
2019-02-23T13:55:44.809Z,5.40
2019-02-23T13:58:12.384Z,7.07
2019-02-23T14:00:40.015Z,7.23
2019-02-23T14:03:10.364Z,5.80
2019-02-23T14:05:47.008Z,5.83
2019-02-23T14:08:14.868Z,4.17
2019-02-23T14:11:00.638Z,10.30
2019-02-23T14:13:43.616Z,5.03
2019-02-23T14:16:11.195Z,7.73
2019-02-23T14:18:52.203Z,5.10
2019-02-23T14:21:55.100Z,5.30
2019-02-23T14:24:22.755Z,4.93
2019-02-23T14:27:07.377Z,6.17
2019-02-23T14:29:42.076Z,6.90
2019-02-23T14:32:12.624Z,6.80
2019-02-23T14:34:49.184Z,4.40
2019-02-23T14:37:33.413Z,4.83
2019-02-23T14:40:18.187Z,5.20
2019-02-23T14:43:04.031Z,6.67
2019-02-23T14:45:47.278Z,5.30
2019-02-23T14:48:17.937Z,3.83
2019-02-23T14:51:01.285Z,7.07
2019-02-23T14:53:28.859Z,6.17
2019-02-23T14:55:59.661Z,13.10
2019-02-23T14:58:44.363Z,7.03
2019-02-23T15:01:12.311Z,5.03
2019-02-23T15:03:52.389Z,7.73
2019-02-23T15:06:19.980Z,5.10
2019-02-23T15:09:05.792Z,6.00
2019-02-23T15:11:33.676Z,10.27
2019-02-23T15:14:01.516Z,4.97
2019-02-23T15:16:41.252Z,5.97
2019-02-23T15:19:11.880Z,5.23
2019-02-23T15:21:42.434Z,4.47
2019-02-23T15:24:16.149Z,4.93
2019-02-23T15:26:52.560Z,7.00
2019-02-23T15:29:32.349Z,5.60
2019-02-23T15:32:00.155Z,4.17
2019-02-23T15:34:30.606Z,10.10
2019-02-23T15:37:10.315Z,6.72
2019-02-23T15:39:40.970Z,4.90
2019-02-23T15:42:11.715Z,12.28
2019-02-23T15:44:46.056Z,4.17
2019-02-23T15:47:22.632Z,5.85
2019-02-23T15:49:48.451Z,3.62
2019-02-23T15:52:14.214Z,7.80
2019-02-23T15:54:40.190Z,4.53
2019-02-23T15:57:05.983Z,9.20
2019-02-23T15:59:31.640Z,4.00
2019-02-23T16:01:57.289Z,3.37
2019-02-23T16:04:23.108Z,4.70
2019-02-23T16:06:49.027Z,11.83
2019-02-23T16:09:15.009Z,3.70
2019-02-23T16:11:40.707Z,4.77
2019-02-23T16:14:06.623Z,6.40
2019-02-23T16:16:32.318Z,4.87
2019-02-23T16:18:58.237Z,5.63
2019-02-23T16:21:24.403Z,5.58
2019-02-23T16:23:50.196Z,8.40
2019-02-23T16:26:16.030Z,5.83
2019-02-23T16:28:42.042Z,4.50
2019-02-23T16:31:07.692Z,4.93
2019-02-23T16:33:33.374Z,5.73
2019-02-23T16:35:59.043Z,6.50
2019-02-23T16:38:24.962Z,6.23
2019-02-23T16:40:50.618Z,5.80
2019-02-23T16:43:19.312Z,5.77
2019-02-23T16:45:44.986Z,7.33
2019-02-23T16:48:13.739Z,5.07
2019-02-23T16:50:39.468Z,5.10
2019-02-23T16:53:08.405Z,12.07
2019-02-23T16:55:34.085Z,7.03
2019-02-23T16:58:02.942Z,4.93
2019-02-23T17:00:28.933Z,7.22
2019-02-23T17:02:57.962Z,5.05
2019-02-23T17:05:23.615Z,16.12
2019-02-23T17:07:49.327Z,6.57
2019-02-23T17:10:15.302Z,3.93
2019-02-23T17:12:41.073Z,6.37
2019-02-23T17:15:10.581Z,4.50
2019-02-23T17:17:36.750Z,6.95
2019-02-23T17:20:02.860Z,5.60
2019-02-23T17:22:29.147Z,12.20
2019-02-23T17:24:58.273Z,4.30
2019-02-23T17:27:35.535Z,6.03
2019-02-23T17:29:51.881Z,4.50
2019-02-23T17:32:17.546Z,7.60
2019-02-23T17:34:46.319Z,7.00
2019-02-23T17:37:12.031Z,4.55
2019-02-23T17:39:42.846Z,3.33
2019-02-23T17:42:08.531Z,5.15
2019-02-23T17:44:34.220Z,7.23
2019-02-23T17:46:59.895Z,5.23
2019-02-23T17:49:25.744Z,4.80
2019-02-23T17:51:53.074Z,4.00
2019-02-23T17:54:18.752Z,3.58
2019-02-23T17:56:47.259Z,4.67
2019-02-23T17:59:12.926Z,4.12
2019-02-23T18:01:45.691Z,66.50
2019-02-23T18:04:11.662Z,5.83
2019-02-23T18:06:37.322Z,10.63
2019-02-23T18:09:04.180Z,5.47
2019-02-23T18:11:32.916Z,5.95
2019-02-23T18:13:58.583Z,9.18
2019-02-23T18:16:27.346Z,6.50
2019-02-23T18:18:53.053Z,5.92
2019-02-23T18:21:18.789Z,5.60
2019-02-23T18:23:44.486Z,5.83
2019-02-23T18:26:10.148Z,7.10
2019-02-23T18:28:38.996Z,5.50
2019-02-23T18:31:04.704Z,4.15
2019-02-23T18:33:33.442Z,5.17
2019-02-23T18:35:59.089Z,4.42
2019-02-23T18:38:27.929Z,4.63
2019-02-23T18:40:53.600Z,7.80
2019-02-23T18:43:21.936Z,5.97
2019-02-23T18:45:47.790Z,11.12
2019-02-23T18:48:19.193Z,4.40
2019-02-23T18:50:44.880Z,3.02
2019-02-23T18:53:13.882Z,4.63
2019-02-23T18:55:41.355Z,4.58
2019-02-23T18:58:07.214Z,6.67
2019-02-23T19:00:32.878Z,4.87
2019-02-23T19:02:58.562Z,2.70
2019-02-23T19:05:24.473Z,4.10
2019-02-23T19:07:50.448Z,6.33
2019-02-23T19:10:19.336Z,4.77
2019-02-23T19:12:44.985Z,3.80
2019-02-23T19:15:13.792Z,6.30
2019-02-23T19:17:39.470Z,7.62
2019-02-23T19:20:09.196Z,5.47
2019-02-23T19:22:56.766Z,5.10
2019-02-23T19:25:22.441Z,5.60
2019-02-23T19:27:49.442Z,7.87
2019-02-23T19:30:15.408Z,4.42
2019-02-23T19:32:41.190Z,5.83
2019-02-23T19:35:07.327Z,7.53
2019-02-23T19:37:32.990Z,4.47
2019-02-23T19:39:58.698Z,6.10
2019-02-23T19:42:24.363Z,4.80
2019-02-23T19:44:51.233Z,5.43
2019-02-23T19:47:17.010Z,5.25
2019-02-23T19:49:42.685Z,4.03
2019-02-23T19:52:08.660Z,5.80
2019-02-23T19:54:34.332Z,4.17
2019-02-23T19:57:00.030Z,2.97
2019-02-23T19:59:25.949Z,3.20
2019-02-23T20:01:51.627Z,8.70
2019-02-23T20:04:17.287Z,5.37
2019-02-23T20:06:42.985Z,3.37
2019-02-23T20:09:08.667Z,5.70
2019-02-23T20:11:34.323Z,4.97
2019-02-23T20:14:00.331Z,5.10
2019-02-23T20:16:25.976Z,7.17
2019-02-23T20:18:54.957Z,6.23
2019-02-23T20:21:20.618Z,3.90
2019-02-23T20:23:48.781Z,10.30
2019-02-23T20:26:16.410Z,11.78
2019-02-23T20:28:45.373Z,6.47
2019-02-23T20:31:11.288Z,5.40
2019-02-23T20:33:39.872Z,5.37
2019-02-23T20:36:05.548Z,5.90
2019-02-23T20:38:34.239Z,6.63
2019-02-23T20:41:00.012Z,4.00
2019-02-23T20:43:28.433Z,6.43
2019-02-23T20:45:54.384Z,4.50
2019-02-23T20:48:20.178Z,13.38
2019-02-23T20:50:45.948Z,5.00
2019-02-23T20:53:12.012Z,4.73
2019-02-23T20:55:41.027Z,6.30
2019-02-23T20:58:06.948Z,4.53
2019-02-23T21:00:34.009Z,5.27
2019-02-23T21:02:59.718Z,10.32
2019-02-23T21:05:31.217Z,5.53
2019-02-23T21:07:56.891Z,3.67
2019-02-23T21:10:25.695Z,5.83
2019-02-23T21:12:51.781Z,6.85
2019-02-23T21:15:20.655Z,5.70
2019-02-23T21:17:46.642Z,6.15
2019-02-23T21:20:15.557Z,5.72
2019-02-23T21:22:41.273Z,2.33
2019-02-23T21:25:07.738Z,4.27
2019-02-23T21:27:33.451Z,6.20
2019-02-23T21:29:59.357Z,5.83
2019-02-23T21:32:25.032Z,4.30
2019-02-23T21:34:50.717Z,4.47
2019-02-23T21:37:22.221Z,7.17
2019-02-23T21:39:48.083Z,3.42
2019-02-23T21:42:16.873Z,4.33
2019-02-23T21:44:42.609Z,4.45
2019-02-23T21:47:11.022Z,5.03
2019-02-23T21:49:36.717Z,3.20
2019-02-23T21:52:03.798Z,9.20
2019-02-23T21:54:29.521Z,5.95
2019-02-23T21:57:00.132Z,13.03
2019-02-23T21:59:25.781Z,7.12
2019-02-23T22:01:51.463Z,9.10
2019-02-23T22:04:17.154Z,4.40
2019-02-23T22:06:43.111Z,4.30
2019-02-23T22:09:10.559Z,3.00
2019-02-23T22:11:36.342Z,7.85
2019-02-23T22:14:04.974Z,13.33
2019-02-23T22:16:30.653Z,6.17
2019-02-23T22:19:01.688Z,3.73
2019-02-23T22:21:27.459Z,4.28
2019-02-23T22:23:55.950Z,5.70
2019-02-23T22:26:21.661Z,3.25
2019-02-23T22:28:48.614Z,3.47
2019-02-23T22:31:14.324Z,2.77
2019-02-23T22:33:47.437Z,7.00
2019-02-23T22:36:13.303Z,3.70
2019-02-23T22:38:38.983Z,38.10
2019-02-23T22:41:04.917Z,4.33
2019-02-23T22:43:30.868Z,3.13
2019-02-23T22:45:56.580Z,3.57
2019-02-23T22:48:22.268Z,3.70
2019-02-23T22:50:50.932Z,3.73
2019-02-23T22:53:16.626Z,3.65
2019-02-23T22:55:45.598Z,3.07
2019-02-23T22:58:11.565Z,3.30
2019-02-23T23:03:30.349Z,4.12
2019-02-23T23:05:56.040Z,3.30
2019-02-23T23:08:21.736Z,3.10
2019-02-23T23:10:47.668Z,6.23
2019-02-23T23:13:13.361Z,5.23
2019-02-23T23:15:39.120Z,3.60
2019-02-23T23:18:04.792Z,4.90
2019-02-23T23:20:30.736Z,2.10
2019-02-23T23:22:56.438Z,5.90
2019-02-23T23:25:22.416Z,5.37
2019-02-23T23:27:49.521Z,4.70
2019-02-23T23:30:15.794Z,2.98
2019-02-23T23:32:41.493Z,3.17
2019-02-23T23:35:07.329Z,3.00
2019-02-23T23:37:33.011Z,3.40
2019-02-23T23:39:58.684Z,2.53
2019-02-23T23:42:24.526Z,5.53
2019-02-23T23:44:50.561Z,16.60
2019-02-23T23:47:16.226Z,22.27
2019-02-23T23:49:42.208Z,38.40
2019-02-23T23:52:07.953Z,21.62
2019-02-23T23:54:33.606Z,11.47
2019-02-23T23:56:59.549Z,5.73
2019-02-23T23:59:27.981Z,3.53
